createdAt,value
2022-10-17T00:00:04.116Z,1.73
2022-10-17T00:02:31.961Z,1.30
2022-10-17T00:04:59.759Z,1.07
2022-10-17T00:07:33.118Z,1.23
2022-10-17T00:10:01.167Z,1.30
2022-10-17T00:12:32.499Z,1.30
2022-10-17T00:15:02.167Z,1.40
2022-10-17T00:17:30.444Z,1.33
2022-10-17T00:20:01.620Z,1.70
2022-10-17T00:22:31.320Z,1.70
2022-10-17T00:24:59.155Z,1.23
2022-10-17T00:27:30.838Z,1.43
2022-10-17T00:30:01.404Z,1.00
2022-10-17T00:34:58.516Z,1.40
2022-10-17T00:37:28.410Z,0.97
2022-10-17T00:39:56.198Z,1.00
2022-10-17T00:42:38.861Z,1.20
2022-10-17T00:45:14.781Z,1.23
2022-10-17T00:47:51.217Z,1.30
2022-10-17T00:50:20.520Z,1.37
2022-10-17T00:52:51.426Z,1.30
2022-10-17T00:55:24.982Z,1.07
2022-10-17T00:57:57.518Z,1.33
2022-10-17T01:00:27.890Z,1.07
2022-10-17T01:02:57.844Z,1.60
2022-10-17T01:05:25.709Z,1.13
2022-10-17T01:07:57.167Z,1.20
2022-10-17T01:10:34.174Z,0.97
2022-10-17T01:13:12.671Z,1.60
2022-10-17T01:15:51.698Z,1.30
2022-10-17T01:18:35.790Z,1.30
2022-10-17T01:21:21.408Z,1.53
2022-10-17T01:24:33.759Z,1.33
2022-10-17T01:27:25.006Z,1.13
2022-10-17T01:30:32.496Z,1.57
2022-10-17T01:33:08.281Z,1.40
2022-10-17T01:35:43.748Z,1.20
2022-10-17T01:38:15.862Z,1.67
2022-10-17T01:40:53.903Z,1.70
2022-10-17T01:43:27.038Z,1.07
2022-10-17T01:46:05.955Z,1.07
2022-10-17T01:48:37.734Z,1.60
2022-10-17T01:51:14.343Z,1.70
2022-10-17T01:53:47.594Z,1.37
2022-10-17T01:56:21.343Z,1.03
2022-10-17T01:58:54.136Z,1.60
2022-10-17T02:01:29.678Z,1.53
2022-10-17T02:04:17.079Z,1.33
2022-10-17T02:06:49.044Z,1.40
2022-10-17T02:09:22.697Z,2.03
2022-10-17T02:12:18.845Z,1.40
2022-10-17T02:15:03.439Z,1.30
2022-10-17T02:17:45.020Z,1.30
2022-10-17T02:20:21.599Z,1.50
2022-10-17T02:22:59.291Z,1.00
2022-10-17T02:25:37.840Z,1.40
2022-10-17T02:28:19.396Z,1.17
2022-10-17T02:30:53.013Z,1.20
2022-10-17T02:33:28.745Z,1.63
2022-10-17T02:36:03.148Z,0.83
2022-10-17T02:38:38.008Z,1.57
2022-10-17T02:41:07.634Z,1.23
2022-10-17T02:43:42.230Z,1.20
2022-10-17T02:46:10.422Z,1.13
2022-10-17T02:48:47.130Z,0.80
2022-10-17T02:51:23.491Z,0.80
2022-10-17T02:54:01.377Z,0.80
2022-10-17T02:56:32.549Z,0.80
2022-10-17T02:59:06.468Z,1.33
2022-10-17T03:01:36.346Z,0.93
2022-10-17T03:04:13.050Z,1.05
2022-10-17T03:06:42.875Z,0.80
2022-10-17T03:09:10.728Z,1.33
2022-10-17T03:11:41.040Z,1.00
2022-10-17T03:14:08.923Z,1.30
2022-10-17T03:16:39.015Z,1.17
2022-10-17T03:19:10.036Z,1.33
2022-10-17T03:21:38.289Z,0.97
2022-10-17T03:24:09.131Z,1.10
2022-10-17T03:26:39.223Z,0.77
2022-10-17T03:29:07.048Z,1.13
2022-10-17T03:31:37.455Z,1.20
2022-10-17T03:34:07.156Z,1.27
2022-10-17T03:36:34.930Z,0.75
2022-10-17T03:39:05.109Z,1.20
2022-10-17T03:41:36.203Z,0.82
2022-10-17T03:44:04.501Z,0.83
2022-10-17T03:46:34.741Z,1.40
2022-10-17T03:49:04.750Z,1.00
2022-10-17T03:51:34.522Z,1.65
2022-10-17T03:54:05.375Z,1.40
2022-10-17T03:56:36.504Z,1.40
2022-10-17T03:59:04.328Z,1.30
2022-10-17T04:01:34.504Z,1.57
2022-10-17T04:04:02.661Z,1.00
2022-10-17T04:06:30.418Z,0.90
2022-10-17T04:09:00.572Z,1.30
2022-10-17T04:11:32.747Z,1.00
2022-10-17T04:14:01.916Z,1.20
2022-10-17T04:16:30.232Z,1.37
2022-10-17T04:19:03.315Z,1.10
2022-10-17T04:21:31.100Z,1.20
2022-10-17T04:24:00.339Z,1.00
2022-10-17T04:26:35.043Z,2.03
2022-10-17T04:29:05.170Z,1.30
2022-10-17T04:31:32.974Z,1.02
2022-10-17T04:34:03.204Z,1.50
2022-10-17T04:36:30.981Z,1.05
2022-10-17T04:38:58.780Z,1.53
2022-10-17T04:41:30.601Z,1.13
2022-10-17T04:43:58.475Z,1.03
2022-10-17T04:46:27.610Z,0.93
2022-10-17T04:48:59.470Z,1.30
2022-10-17T04:51:27.271Z,1.63
2022-10-17T04:53:55.176Z,1.13
2022-10-17T04:56:26.387Z,1.10
2022-10-17T04:58:54.161Z,0.97
2022-10-17T05:01:23.698Z,1.10
2022-10-17T05:03:57.900Z,1.20
2022-10-17T05:06:28.160Z,1.60
2022-10-17T05:09:01.037Z,0.90
2022-10-17T05:11:30.269Z,2.00
2022-10-17T05:14:01.564Z,1.57
2022-10-17T05:16:32.338Z,1.20
2022-10-17T05:19:04.074Z,1.30
2022-10-17T05:24:02.049Z,1.07
2022-10-17T05:26:32.183Z,0.90
2022-10-17T05:29:02.793Z,1.05
2022-10-17T05:31:33.390Z,1.83
2022-10-17T05:36:32.553Z,1.23
2022-10-17T05:39:02.386Z,1.20
2022-10-17T05:41:32.485Z,1.13
2022-10-17T05:44:03.160Z,1.58
2022-10-17T05:46:35.945Z,1.23
2022-10-17T05:49:14.766Z,1.15
2022-10-17T05:51:57.062Z,1.23
2022-10-17T05:54:25.004Z,1.70
2022-10-17T05:56:53.446Z,0.73
2022-10-17T05:59:25.378Z,1.30
2022-10-17T06:01:53.441Z,1.50
2022-10-17T06:04:22.739Z,1.20
2022-10-17T06:06:55.085Z,1.13
2022-10-17T06:09:24.333Z,1.20
2022-10-17T06:11:52.434Z,1.00
2022-10-17T06:14:24.417Z,1.20
2022-10-17T06:16:52.157Z,1.27
2022-10-17T06:19:20.379Z,1.20
2022-10-17T06:21:53.473Z,0.90
2022-10-17T06:24:21.222Z,1.23
2022-10-17T06:26:49.925Z,1.33
2022-10-17T06:29:24.367Z,1.47
2022-10-17T06:31:52.175Z,1.10
2022-10-17T06:34:20.115Z,1.23
2022-10-17T06:36:53.075Z,1.03
2022-10-17T06:39:20.850Z,1.20
2022-10-17T06:41:48.622Z,1.43
2022-10-17T06:44:18.412Z,1.73
2022-10-17T06:46:46.188Z,1.27
2022-10-17T06:49:13.979Z,1.10
2022-10-17T06:51:44.112Z,1.23
2022-10-17T06:54:13.258Z,1.10
2022-10-17T06:56:41.050Z,1.10
2022-10-17T06:59:13.578Z,1.30
2022-10-17T07:01:43.272Z,1.40
2022-10-17T07:04:18.051Z,1.53
2022-10-17T07:06:45.911Z,1.03
2022-10-17T07:09:15.079Z,1.03
2022-10-17T07:11:46.924Z,1.20
2022-10-17T07:14:14.663Z,1.10
2022-10-17T07:16:45.441Z,1.30
2022-10-17T07:19:13.351Z,1.03
2022-10-17T07:21:41.167Z,1.10
2022-10-17T07:24:09.102Z,1.30
2022-10-17T07:26:40.148Z,1.27
2022-10-17T07:29:08.169Z,1.20
2022-10-17T07:31:38.253Z,2.07
2022-10-17T07:34:06.065Z,0.95
2022-10-17T07:36:34.156Z,1.23
2022-10-17T07:39:02.157Z,1.20
2022-10-17T07:41:32.581Z,1.00
2022-10-17T07:44:01.775Z,1.45
2022-10-17T07:46:29.789Z,1.30
2022-10-17T07:48:59.522Z,1.30
2022-10-17T07:51:27.975Z,1.10
2022-10-17T07:53:58.166Z,0.97
2022-10-17T07:56:26.193Z,1.00
2022-10-17T07:58:54.737Z,1.60
2022-10-17T08:01:30.025Z,1.00
2022-10-17T08:03:57.849Z,1.40
2022-10-17T08:06:27.863Z,1.30
2022-10-17T08:08:59.927Z,0.95
2022-10-17T08:11:27.841Z,1.13
2022-10-17T08:13:57.960Z,1.17
2022-10-17T08:16:29.109Z,1.10
2022-10-17T08:18:57.123Z,1.30
2022-10-17T08:21:25.200Z,1.10
2022-10-17T08:23:55.050Z,1.23
2022-10-17T08:26:23.207Z,1.13
2022-10-17T08:28:53.620Z,1.10
2022-10-17T08:33:52.988Z,1.08
2022-10-17T08:36:21.700Z,1.33
2022-10-17T08:38:53.018Z,1.10
2022-10-17T08:41:42.069Z,1.73
2022-10-17T08:44:22.548Z,1.10
2022-10-17T08:49:29.715Z,1.40
2022-10-17T08:52:07.291Z,1.50
2022-10-17T08:54:42.981Z,1.00
2022-10-17T08:57:14.397Z,1.30
2022-10-17T08:59:43.382Z,1.30
2022-10-17T09:02:35.750Z,1.47
2022-10-17T09:05:26.689Z,1.20
2022-10-17T09:08:08.011Z,1.20
2022-10-17T09:10:53.614Z,1.20
2022-10-17T09:13:33.305Z,1.13
2022-10-17T09:16:16.067Z,1.20
2022-10-17T09:18:59.508Z,1.70
2022-10-17T09:21:37.542Z,1.37
2022-10-17T09:24:17.037Z,1.27
2022-10-17T09:26:46.960Z,1.10
2022-10-17T09:29:24.480Z,1.02
2022-10-17T09:32:01.779Z,1.23
2022-10-17T09:34:34.343Z,0.90
2022-10-17T09:37:04.139Z,1.20
2022-10-17T09:39:34.458Z,1.00
2022-10-17T09:42:04.058Z,1.35
2022-10-17T09:44:34.012Z,0.98
2022-10-17T09:47:21.713Z,1.27
2022-10-17T09:49:51.093Z,1.37
2022-10-17T09:52:30.667Z,1.20
2022-10-17T09:55:02.856Z,1.80
2022-10-17T09:57:55.394Z,1.07
2022-10-17T10:00:25.565Z,1.00
2022-10-17T10:03:11.886Z,1.13
2022-10-17T10:05:39.962Z,1.20
2022-10-17T10:08:16.053Z,1.50
2022-10-17T10:10:44.470Z,1.20
2022-10-17T10:13:22.404Z,1.00
2022-10-17T10:15:51.821Z,1.33
2022-10-17T10:18:32.923Z,0.83
2022-10-17T10:21:09.759Z,1.50
2022-10-17T10:23:43.205Z,0.90
2022-10-17T10:26:23.771Z,1.30
2022-10-17T10:31:34.859Z,0.70
2022-10-17T10:34:18.749Z,1.00
2022-10-17T10:36:51.234Z,1.07
2022-10-17T10:39:31.871Z,0.80
2022-10-17T10:42:00.434Z,0.80
2022-10-17T10:44:35.087Z,0.90
2022-10-17T10:47:16.731Z,0.80
2022-10-17T10:49:45.573Z,1.00
2022-10-17T10:52:23.388Z,1.00
2022-10-17T10:55:02.281Z,1.10
2022-10-17T10:57:34.702Z,0.77
2022-10-17T11:00:12.475Z,0.80
2022-10-17T11:02:48.663Z,0.70
2022-10-17T11:05:22.150Z,0.73
2022-10-17T11:07:56.154Z,0.70
2022-10-17T11:10:32.690Z,0.70
2022-10-17T11:13:07.195Z,0.70
2022-10-17T11:15:41.864Z,1.10
2022-10-17T11:18:14.292Z,0.70
2022-10-17T11:20:51.815Z,0.97
2022-10-17T11:23:25.251Z,0.60
2022-10-17T11:25:55.836Z,0.70
2022-10-17T11:28:26.066Z,0.53
2022-10-17T11:31:05.844Z,0.80
2022-10-17T11:33:45.252Z,0.60
2022-10-17T11:36:17.827Z,0.90
2022-10-17T11:38:50.863Z,0.70
2022-10-17T11:41:31.008Z,1.53
2022-10-17T11:44:04.537Z,0.80
2022-10-17T11:46:37.672Z,0.63
2022-10-17T11:49:19.048Z,0.83
2022-10-17T11:52:00.903Z,0.90
2022-10-17T11:54:35.108Z,0.80
2022-10-17T11:57:22.803Z,0.60
2022-10-17T12:00:01.291Z,0.70
2022-10-17T12:02:39.203Z,0.87
2022-10-17T12:05:21.139Z,0.83
2022-10-17T12:07:56.425Z,0.60
2022-10-17T12:10:38.487Z,0.80
2022-10-17T12:13:42.981Z,1.03
2022-10-17T12:16:46.127Z,0.90
2022-10-17T12:19:28.748Z,0.70
2022-10-17T12:21:59.377Z,0.70
2022-10-17T12:24:36.007Z,0.80
2022-10-17T12:27:23.386Z,1.67
2022-10-17T12:29:51.821Z,0.90
2022-10-17T12:32:21.089Z,0.90
2022-10-17T12:34:56.182Z,0.93
2022-10-17T12:37:58.696Z,0.90
2022-10-17T12:40:52.302Z,1.20
2022-10-17T12:43:58.149Z,1.33
2022-10-17T12:46:47.467Z,0.80
2022-10-17T12:49:40.594Z,1.20
2022-10-17T12:52:24.012Z,1.10
2022-10-17T12:55:07.427Z,1.13
2022-10-17T12:57:47.488Z,1.20
2022-10-17T13:00:22.865Z,0.80
2022-10-17T13:02:55.393Z,1.20
2022-10-17T13:05:29.754Z,1.57
2022-10-17T13:08:02.251Z,1.13
2022-10-17T13:10:33.224Z,1.10
2022-10-17T13:13:09.494Z,1.30
2022-10-17T13:15:38.494Z,0.80
2022-10-17T13:18:21.132Z,1.00
2022-10-17T13:20:58.913Z,1.00
2022-10-17T13:23:31.863Z,1.33
2022-10-17T13:26:09.048Z,1.07
2022-10-17T13:28:39.537Z,1.20
2022-10-17T13:31:08.029Z,0.77
2022-10-17T13:33:41.123Z,1.03
2022-10-17T13:36:18.881Z,1.13
2022-10-17T13:38:50.991Z,1.17
2022-10-17T13:41:35.335Z,1.30
2022-10-17T13:44:08.774Z,1.10
2022-10-17T13:46:38.853Z,1.00
2022-10-17T13:49:23.175Z,1.30
2022-10-17T13:51:56.162Z,1.33
2022-10-17T13:54:38.775Z,1.20
2022-10-17T13:57:08.065Z,1.20
2022-10-17T13:59:42.465Z,1.00
2022-10-17T14:02:16.464Z,1.40
2022-10-17T14:05:18.661Z,1.20
2022-10-17T14:08:12.664Z,1.40
2022-10-17T14:10:45.351Z,1.57
2022-10-17T14:13:22.162Z,1.40
2022-10-17T14:15:51.065Z,1.40
2022-10-17T14:18:21.947Z,1.63
2022-10-17T14:23:44.498Z,1.77
2022-10-17T14:26:16.080Z,1.73
2022-10-17T14:28:46.859Z,1.70
2022-10-17T14:31:25.096Z,1.87
2022-10-17T14:33:54.704Z,2.00
2022-10-17T14:36:32.427Z,1.80
2022-10-17T14:39:02.491Z,2.53
2022-10-17T14:41:48.600Z,2.03
2022-10-17T14:44:29.559Z,1.90
2022-10-17T14:47:03.432Z,2.00
2022-10-17T14:49:39.990Z,1.65
2022-10-17T14:54:49.866Z,2.10
2022-10-17T14:57:19.880Z,1.60
2022-10-17T14:59:55.714Z,1.77
2022-10-17T15:02:24.281Z,2.00
2022-10-17T15:04:52.247Z,1.80
2022-10-17T15:07:21.102Z,1.47
2022-10-17T15:09:52.640Z,1.67
2022-10-17T15:12:24.939Z,1.80
2022-10-17T15:14:53.432Z,2.10
2022-10-17T15:17:27.581Z,2.60
2022-10-17T15:19:55.822Z,1.73
2022-10-17T15:22:24.210Z,1.87
2022-10-17T15:24:53.508Z,1.93
2022-10-17T15:27:22.873Z,1.63
2022-10-17T15:29:51.663Z,2.27
2022-10-17T15:32:20.030Z,1.83
2022-10-17T15:34:47.831Z,1.63
2022-10-17T15:37:22.675Z,2.03
2022-10-17T15:39:53.519Z,2.33
2022-10-17T15:42:27.459Z,2.10
2022-10-17T15:44:55.909Z,2.00
2022-10-17T15:47:26.461Z,1.77
2022-10-17T15:49:54.957Z,1.67
2022-10-17T15:52:22.900Z,2.30
2022-10-17T15:54:50.712Z,2.10
2022-10-17T15:57:21.515Z,2.57
2022-10-17T15:59:52.174Z,1.97
2022-10-17T16:02:21.662Z,2.30
2022-10-17T16:04:55.358Z,1.93
2022-10-17T16:07:23.275Z,2.10
2022-10-17T16:09:51.081Z,2.67
2022-10-17T16:12:29.910Z,2.20
2022-10-17T16:14:59.117Z,2.40
2022-10-17T16:17:29.375Z,2.23
2022-10-17T16:22:32.422Z,5.33
2022-10-17T16:25:09.633Z,4.43
2022-10-17T16:27:38.740Z,4.10
2022-10-17T16:30:10.015Z,3.73
2022-10-17T16:32:39.658Z,3.90
2022-10-17T16:35:08.792Z,4.47
2022-10-17T16:37:36.863Z,3.73
2022-10-17T16:40:05.657Z,4.20
2022-10-17T16:42:33.505Z,2.37
2022-10-17T16:45:03.574Z,3.77
2022-10-17T16:47:34.598Z,4.57
2022-10-17T16:50:02.440Z,3.37
2022-10-17T16:52:30.585Z,3.27
2022-10-17T16:54:58.621Z,3.63
2022-10-17T16:57:26.482Z,4.07
2022-10-17T16:59:56.533Z,3.43
2022-10-17T17:02:24.444Z,3.72
2022-10-17T17:04:53.570Z,3.37
2022-10-17T17:07:22.150Z,3.50
2022-10-17T17:09:49.989Z,3.03
2022-10-17T17:12:17.741Z,2.40
2022-10-17T17:14:45.597Z,3.00
2022-10-17T17:17:19.694Z,2.40
2022-10-17T17:19:59.828Z,2.77
2022-10-17T17:22:29.860Z,2.67
2022-10-17T17:24:57.598Z,2.45
2022-10-17T17:27:28.854Z,2.63
2022-10-17T17:29:57.053Z,2.20
2022-10-17T17:32:24.861Z,2.27
2022-10-17T17:34:55.171Z,2.43
2022-10-17T17:37:24.447Z,2.80
2022-10-17T17:39:52.263Z,2.10
2022-10-17T17:42:20.399Z,2.90
2022-10-17T17:44:50.656Z,2.90
2022-10-17T17:47:18.491Z,2.42
2022-10-17T17:49:48.567Z,2.87
2022-10-17T17:52:16.527Z,4.35
2022-10-17T17:54:45.863Z,4.00
2022-10-17T17:57:13.824Z,2.40
2022-10-17T17:59:43.665Z,2.73
2022-10-17T18:02:13.761Z,2.55
2022-10-17T18:04:41.611Z,3.00
2022-10-17T18:07:11.353Z,3.27
2022-10-17T18:09:41.360Z,3.17
2022-10-17T18:12:10.537Z,3.30
2022-10-17T18:14:40.342Z,3.70
2022-10-17T18:17:08.309Z,3.55
2022-10-17T18:19:36.126Z,3.50
2022-10-17T18:22:05.866Z,3.73
2022-10-17T18:24:36.034Z,3.47
2022-10-17T18:27:04.133Z,2.83
2022-10-17T18:29:35.626Z,3.00
2022-10-17T18:32:06.099Z,2.70
2022-10-17T18:37:27.307Z,3.00
2022-10-17T18:39:55.959Z,2.97
2022-10-17T18:42:24.088Z,2.73
2022-10-17T18:47:49.573Z,2.60
2022-10-17T18:50:20.016Z,3.10
2022-10-17T18:55:25.946Z,2.97
2022-10-17T18:57:56.040Z,3.30
2022-10-17T19:00:23.978Z,2.95
2022-10-17T19:02:55.761Z,3.40
2022-10-17T19:05:23.976Z,2.73
2022-10-17T19:07:52.015Z,2.67
2022-10-17T19:10:22.368Z,2.90
2022-10-17T19:12:52.576Z,3.80
2022-10-17T19:15:26.371Z,5.03
2022-10-17T19:17:56.068Z,5.50
2022-10-17T19:20:30.185Z,5.93
2022-10-17T19:23:00.334Z,5.77
2022-10-17T19:25:30.580Z,4.47
2022-10-17T19:27:59.346Z,3.80
2022-10-17T19:30:28.577Z,3.40
2022-10-17T19:32:59.156Z,3.47
2022-10-17T19:35:28.336Z,4.00
2022-10-17T19:37:56.862Z,4.13
2022-10-17T19:40:24.786Z,4.50
2022-10-17T19:42:57.527Z,3.40
2022-10-17T19:45:27.770Z,5.10
2022-10-17T19:47:56.958Z,4.25
2022-10-17T19:50:27.111Z,3.33
2022-10-17T19:52:55.027Z,3.80
2022-10-17T19:55:22.813Z,4.40
2022-10-17T19:57:52.842Z,4.20
2022-10-17T20:00:22.930Z,4.30
2022-10-17T20:02:50.666Z,4.03
2022-10-17T20:05:22.548Z,4.03
2022-10-17T20:07:53.730Z,4.07
2022-10-17T20:10:21.684Z,4.18
2022-10-17T20:12:49.498Z,3.73
2022-10-17T20:15:17.655Z,3.97
2022-10-17T20:17:47.490Z,4.13
2022-10-17T20:20:15.299Z,4.00
2022-10-17T20:22:44.699Z,2.97
2022-10-17T20:25:12.564Z,3.67
2022-10-17T20:27:40.365Z,3.20
2022-10-17T20:30:08.971Z,3.10
2022-10-17T20:32:39.572Z,3.23
2022-10-17T20:35:08.830Z,3.40
2022-10-17T20:37:42.520Z,3.60
2022-10-17T20:43:03.461Z,3.13
2022-10-17T20:48:21.493Z,3.80
2022-10-17T20:50:49.843Z,3.33
2022-10-17T20:53:36.180Z,3.60
2022-10-17T20:56:11.921Z,3.57
2022-10-17T20:58:39.688Z,3.67
2022-10-17T21:01:08.941Z,3.90
2022-10-17T21:03:39.804Z,3.83
2022-10-17T21:06:10.909Z,3.53
2022-10-17T21:08:39.100Z,4.27
2022-10-17T21:11:16.681Z,3.30
2022-10-17T21:13:45.102Z,4.07
2022-10-17T21:16:15.475Z,4.20
2022-10-17T21:18:48.240Z,4.40
2022-10-17T21:21:17.556Z,3.87
2022-10-17T21:23:51.989Z,3.87
2022-10-17T21:26:21.500Z,3.73
2022-10-17T21:28:52.316Z,3.23
2022-10-17T21:31:24.003Z,3.73
2022-10-17T21:33:53.523Z,3.87
2022-10-17T21:36:24.603Z,3.67
2022-10-17T21:38:56.180Z,3.60
2022-10-17T21:41:29.163Z,4.03
2022-10-17T21:43:58.903Z,3.77
2022-10-17T21:46:27.296Z,3.47
2022-10-17T21:48:55.690Z,2.43
2022-10-17T21:51:27.190Z,2.83
2022-10-17T21:53:58.331Z,2.63
2022-10-17T21:56:30.698Z,3.00
2022-10-17T21:58:59.516Z,2.97
2022-10-17T22:01:29.407Z,2.70
2022-10-17T22:04:00.883Z,2.90
2022-10-17T22:06:39.668Z,2.63
2022-10-17T22:09:10.464Z,2.50
2022-10-17T22:11:42.278Z,2.60
2022-10-17T22:14:16.091Z,2.10
2022-10-17T22:16:45.341Z,2.50
2022-10-17T22:19:15.859Z,2.93
2022-10-17T22:24:15.801Z,3.07
2022-10-17T22:29:19.362Z,3.17
2022-10-17T22:31:47.362Z,2.85
2022-10-17T22:34:16.970Z,3.10
2022-10-17T22:36:47.811Z,3.22
2022-10-17T22:39:15.777Z,3.43
2022-10-17T22:41:46.962Z,2.60
2022-10-17T22:44:14.927Z,2.73
2022-10-17T22:46:42.757Z,3.60
2022-10-17T22:49:12.526Z,1.80
2022-10-17T22:51:42.580Z,1.95
2022-10-17T22:54:10.370Z,1.65
2022-10-17T22:56:39.997Z,1.87
2022-10-17T22:59:10.979Z,1.98
2022-10-17T23:01:38.785Z,1.97
2022-10-17T23:04:06.667Z,1.87
2022-10-17T23:06:36.794Z,2.10
2022-10-17T23:09:05.000Z,1.63
2022-10-17T23:11:34.637Z,1.67
2022-10-17T23:14:04.707Z,1.40
2022-10-17T23:16:34.936Z,1.35
2022-10-17T23:19:05.052Z,1.40
2022-10-17T23:21:35.065Z,1.55
2022-10-17T23:24:02.783Z,1.52
2022-10-17T23:26:32.487Z,1.30
2022-10-17T23:29:02.683Z,1.10
2022-10-17T23:31:36.369Z,1.38
2022-10-17T23:34:04.200Z,1.23
2022-10-17T23:39:08.958Z,1.23
2022-10-17T23:41:36.735Z,1.40
2022-10-17T23:44:04.782Z,2.20
2022-10-17T23:46:38.071Z,1.90
2022-10-17T23:49:06.078Z,1.90
2022-10-17T23:51:34.390Z,1.47
2022-10-17T23:54:06.627Z,1.47
2022-10-17T23:56:34.420Z,1.50
2022-10-17T23:59:02.172Z,1.50
